Time;durP1;ratioP1;P1;durP2;ratioP2;P2;SDS_P1;SDS_P2;PMS_P1;PMS_P2;Temp;Humidity;BMP_temperature;BMP_pressure;BME280_temperature;BME280_humidity;BME280_pressure;Samples;Min_cycle;Max_cycle;Signal;HPM_P1;HPM_P2
2023/04/11 00:00:26;;;;;;;5.55;1.20;;;6.70;99.90;;;;;;5109156;28;20219;-87
2023/04/11 00:02:53;;;;;;;5.78;1.25;;;6.70;99.90;;;;;;5092661;28;20488;-87
2023/04/11 00:05:19;;;;;;;2.63;1.15;;;6.70;99.90;;;;;;5108261;28;20040;-86
2023/04/11 00:07:44;;;;;;;2.70;1.25;;;6.70;99.90;;;;;;5104531;28;20031;-86
2023/04/11 00:10:10;;;;;;;5.45;1.55;;;6.80;99.90;;;;;;5104907;28;20043;-86
2023/04/11 00:12:37;;;;;;;3.80;1.40;;;6.70;99.90;;;;;;5095401;27;20039;-86
2023/04/11 00:15:03;;;;;;;5.80;1.50;;;6.70;99.90;;;;;;5109409;28;20039;-86
2023/04/11 00:17:30;;;;;;;3.72;1.35;;;6.80;99.90;;;;;;5109630;27;20047;-86
2023/04/11 00:19:57;;;;;;;4.30;1.05;;;6.70;99.90;;;;;;5110347;28;20066;-87
2023/04/11 00:22:23;;;;;;;6.70;1.48;;;6.70;99.90;;;;;;5092166;28;20512;-86
2023/04/11 00:24:49;;;;;;;3.83;1.20;;;6.70;99.90;;;;;;5104301;28;20048;-86
2023/04/11 00:27:15;;;;;;;3.47;1.50;;;6.70;99.90;;;;;;5089250;28;20058;-85
2023/04/11 00:29:40;;;;;;;2.72;1.38;;;6.70;99.90;;;;;;5109001;28;20031;-86
2023/04/11 00:32:06;;;;;;;3.38;1.33;;;6.70;99.90;;;;;;5107502;28;20085;-85
2023/04/11 00:34:33;;;;;;;3.35;1.50;;;6.60;99.90;;;;;;5104826;28;20039;-85
2023/04/11 00:36:58;;;;;;;3.58;1.73;;;6.60;99.90;;;;;;5107062;28;20062;-85
2023/04/11 00:39:25;;;;;;;5.05;2.30;;;6.50;99.90;;;;;;5109274;28;20039;-85
2023/04/11 00:41:51;;;;;;;5.93;2.70;;;6.50;99.90;;;;;;5108264;28;20047;-84
2023/04/11 00:44:16;;;;;;;10.27;4.82;;;6.50;99.90;;;;;;5111557;27;20319;-85
2023/04/11 00:46:44;;;;;;;13.35;5.80;;;6.50;99.90;;;;;;5112224;27;20039;-84
2023/04/11 00:49:10;;;;;;;10.10;5.05;;;6.40;99.90;;;;;;5112636;27;20144;-84
2023/04/11 00:51:36;;;;;;;10.07;4.18;;;6.40;99.90;;;;;;5110049;27;20039;-85
2023/04/11 00:54:02;;;;;;;8.85;3.03;;;6.30;99.90;;;;;;5090683;28;20047;-84
2023/04/11 00:56:28;;;;;;;3.47;1.88;;;6.30;99.90;;;;;;5092324;28;20051;-85
2023/04/11 00:58:54;;;;;;;6.85;2.17;;;6.30;99.90;;;;;;5093684;27;20390;-84
2023/04/11 01:01:22;;;;;;;4.10;1.83;;;6.40;99.90;;;;;;5111102;27;20078;-84
2023/04/11 01:03:48;;;;;;;4.05;1.88;;;6.40;99.90;;;;;;5093965;27;20049;-85
2023/04/11 01:06:17;;;;;;;8.68;1.90;;;6.40;99.90;;;;;;5094774;27;20445;-84
2023/04/11 01:08:45;;;;;;;7.82;1.90;;;6.50;99.90;;;;;;5112185;27;20043;-84
2023/04/11 01:11:11;;;;;;;4.82;2.13;;;6.60;99.90;;;;;;5111704;27;20703;-84
2023/04/11 01:13:40;;;;;;;9.13;2.47;;;6.60;99.90;;;;;;5110172;27;20093;-85
2023/04/11 01:16:06;;;;;;;7.07;2.22;;;6.70;99.90;;;;;;5111721;27;20055;-85
2023/04/11 01:18:32;;;;;;;6.00;2.63;;;6.80;99.90;;;;;;5106546;28;20180;-85
2023/04/11 01:20:59;;;;;;;9.15;2.08;;;6.80;99.90;;;;;;5100822;27;20055;-85
2023/04/11 01:23:26;;;;;;;5.32;1.90;;;6.90;99.90;;;;;;5094844;27;20050;-85
2023/04/11 01:25:51;;;;;;;10.20;2.20;;;6.90;99.90;;;;;;5111021;27;20076;-85
2023/04/11 01:28:18;;;;;;;5.65;1.90;;;7.00;99.90;;;;;;5112296;27;20126;-84
2023/04/11 01:30:44;;;;;;;6.10;2.13;;;7.20;99.90;;;;;;5110328;27;20039;-85
2023/04/11 01:33:10;;;;;;;5.65;2.25;;;7.00;99.90;;;;;;5111308;27;20572;-85
2023/04/11 01:35:36;;;;;;;8.57;2.08;;;7.00;99.90;;;;;;5107719;28;20102;-85
2023/04/11 01:38:03;;;;;;;6.60;2.25;;;7.10;99.90;;;;;;5107521;28;20123;-86
2023/04/11 01:40:31;;;;;;;8.05;2.17;;;7.10;99.90;;;;;;5107635;28;20410;-86
2023/04/11 01:42:58;;;;;;;5.30;2.33;;;7.00;99.90;;;;;;5107241;28;20128;-86
2023/04/11 01:45:28;;;;;;;6.90;2.03;;;6.90;99.90;;;;;;5107813;28;20047;-85
2023/04/11 01:47:54;;;;;;;4.50;1.80;;;6.80;99.90;;;;;;5087965;28;20401;-85
2023/04/11 01:50:20;;;;;;;9.15;2.47;;;6.80;99.90;;;;;;5090605;28;20047;-86
2023/04/11 01:52:47;;;;;;;8.00;2.28;;;6.70;99.90;;;;;;5107252;28;20044;-85
2023/04/11 01:55:13;;;;;;;10.77;2.92;;;6.70;99.90;;;;;;5108077;28;20043;-85
2023/04/11 01:57:39;;;;;;;9.45;2.92;;;6.60;99.90;;;;;;5087528;28;20070;-85
2023/04/11 02:00:05;;;;;;;10.32;3.33;;;6.60;99.90;;;;;;5086867;28;20040;-85
2023/04/11 02:02:31;;;;;;;6.00;2.65;;;6.60;99.90;;;;;;5077514;28;20610;-85
2023/04/11 02:04:56;;;;;;;8.30;3.10;;;6.60;99.90;;;;;;5107195;28;20131;-85
2023/04/11 02:07:22;;;;;;;9.80;3.17;;;6.60;99.90;;;;;;5107442;28;20051;-86
2023/04/11 02:09:48;;;;;;;5.28;2.72;;;6.60;99.90;;;;;;5107718;28;20067;-85
2023/04/11 02:12:14;;;;;;;4.55;2.47;;;6.60;99.90;;;;;;5079381;28;20052;-85
2023/04/11 02:14:42;;;;;;;10.43;2.83;;;6.70;99.90;;;;;;5104130;28;20459;-85
2023/04/11 02:17:09;;;;;;;6.32;2.78;;;6.60;99.90;;;;;;5089452;28;20417;-84
2023/04/11 02:19:36;;;;;;;7.97;2.92;;;6.60;99.90;;;;;;5073123;28;20055;-85
2023/04/11 02:22:02;;;;;;;4.22;2.50;;;6.50;99.90;;;;;;5088884;28;20044;-85
2023/04/11 02:24:28;;;;;;;7.97;3.17;;;6.60;99.90;;;;;;5108372;28;20131;-85
2023/04/11 02:26:53;;;;;;;5.80;2.38;;;6.60;99.90;;;;;;5090132;28;20058;-85
2023/04/11 02:29:19;;;;;;;6.55;2.88;;;6.70;99.90;;;;;;5107291;28;20059;-86
2023/04/11 02:31:47;;;;;;;9.63;3.08;;;6.70;99.90;;;;;;5090200;28;20516;-87
2023/04/11 02:34:13;;;;;;;11.02;2.53;;;6.80;99.90;;;;;;5107644;28;20366;-86
2023/04/11 02:36:41;;;;;;;6.90;2.58;;;6.80;99.90;;;;;;5106507;28;20111;-86
2023/04/11 02:39:06;;;;;;;6.63;2.17;;;6.80;99.90;;;;;;5097919;28;20191;-86
2023/04/11 02:41:32;;;;;;;6.40;2.70;;;6.90;99.90;;;;;;5089233;28;20533;-87
2023/04/11 02:43:58;;;;;;;6.57;2.20;;;7.30;99.90;;;;;;5107092;28;20486;-86
2023/04/11 02:46:23;;;;;;;5.30;2.03;;;6.90;99.90;;;;;;5103410;28;20048;-87
2023/04/11 02:48:49;;;;;;;6.95;2.67;;;6.90;99.90;;;;;;5094415;28;20502;-86
2023/04/11 02:51:14;;;;;;;4.80;1.88;;;7.40;99.90;;;;;;5095720;28;20074;-86
2023/04/11 02:53:40;;;;;;;5.63;1.73;;;7.00;99.90;;;;;;5106154;28;20397;-86
2023/04/11 02:56:09;;;;;;;7.85;1.90;;;6.90;99.90;;;;;;5088881;28;20046;-86
2023/04/11 02:58:37;;;;;;;5.40;1.98;;;6.90;99.90;;;;;;5089880;28;20413;-87
2023/04/11 03:01:05;;;;;;;9.55;2.10;;;6.90;99.90;;;;;;5106419;28;20044;-86
2023/04/11 03:03:33;;;;;;;4.07;1.92;;;6.90;99.90;;;;;;5106861;28;20058;-86
2023/04/11 03:05:59;;;;;;;3.80;2.20;;;6.90;99.90;;;;;;5104033;28;20036;-87
2023/04/11 03:08:24;;;;;;;7.97;2.80;;;6.90;99.90;;;;;;5105568;28;20100;-86
2023/04/11 03:10:50;;;;;;;5.80;2.40;;;7.10;99.90;;;;;;5105968;28;20047;-86
2023/04/11 03:13:16;;;;;;;6.97;2.88;;;6.90;99.90;;;;;;5106845;28;20815;-85
2023/04/11 03:15:41;;;;;;;9.18;2.83;;;7.00;99.90;;;;;;5087857;28;20052;-85
2023/04/11 03:18:07;;;;;;;7.72;2.90;;;7.00;99.90;;;;;;5106529;28;20062;-86
2023/04/11 03:20:32;;;;;;;5.65;2.50;;;6.90;99.90;;;;;;5104816;28;20046;-85
2023/04/11 03:22:58;;;;;;;8.80;2.72;;;6.90;99.90;;;;;;5101562;28;20047;-86
2023/04/11 03:25:24;;;;;;;9.90;2.60;;;7.00;99.90;;;;;;5099465;28;20398;-85
2023/04/11 03:27:49;;;;;;;14.27;2.97;;;7.00;99.90;;;;;;5105795;28;20435;-85
2023/04/11 03:30:15;;;;;;;16.75;3.35;;;7.20;99.90;;;;;;5105891;28;20044;-84
2023/04/11 03:32:41;;;;;;;11.85;4.13;;;7.00;99.90;;;;;;5089592;28;20043;-84
2023/04/11 03:35:07;;;;;;;10.52;2.83;;;7.00;99.90;;;;;;5107817;28;20045;-85
2023/04/11 03:37:32;;;;;;;15.98;3.38;;;7.00;99.90;;;;;;5083856;28;20052;-84
2023/04/11 03:39:58;;;;;;;13.65;2.70;;;7.00;99.90;;;;;;5100365;28;20039;-85
2023/04/11 03:42:23;;;;;;;9.77;2.35;;;7.10;99.90;;;;;;5106317;28;20047;-85
2023/04/11 03:44:49;;;;;;;10.43;3.13;;;7.10;99.90;;;;;;5105622;28;20043;-85
2023/04/11 03:47:15;;;;;;;13.57;3.63;;;7.10;99.90;;;;;;5107773;28;20036;-85
2023/04/11 03:49:40;;;;;;;10.68;2.65;;;7.20;99.90;;;;;;5089206;28;20153;-84
2023/04/11 03:52:08;;;;;;;8.25;2.50;;;7.20;99.90;;;;;;5100050;28;21526;-85
2023/04/11 03:54:34;;;;;;;8.65;2.28;;;7.20;99.90;;;;;;5106497;28;20047;-85
2023/04/11 03:57:00;;;;;;;9.40;2.38;;;7.30;99.90;;;;;;5107225;28;20705;-84
2023/04/11 03:59:25;;;;;;;9.93;2.15;;;7.40;99.90;;;;;;5104311;28;20052;-85
2023/04/11 04:01:51;;;;;;;9.98;2.45;;;7.40;99.90;;;;;;5105833;28;20039;-85
2023/04/11 04:04:16;;;;;;;5.50;1.85;;;7.40;99.90;;;;;;5107614;28;20039;-85
2023/04/11 04:06:44;;;;;;;7.70;1.58;;;7.50;99.90;;;;;;5098056;28;20043;-85
2023/04/11 04:09:10;;;;;;;8.13;2.40;;;7.50;99.90;;;;;;5104944;28;20051;-85
2023/04/11 04:11:36;;;;;;;8.10;1.90;;;7.50;99.90;;;;;;5098314;28;20039;-86
2023/04/11 04:14:01;;;;;;;6.63;2.28;;;7.50;99.90;;;;;;5105671;28;20047;-85
2023/04/11 04:16:27;;;;;;;4.43;1.55;;;7.60;99.90;;;;;;5105864;28;20058;-85
2023/04/11 04:18:52;;;;;;;4.70;1.70;;;7.60;99.90;;;;;;5092432;28;20040;-85
2023/04/11 04:21:18;;;;;;;10.25;2.10;;;7.90;99.90;;;;;;5111098;28;20389;-85
2023/04/11 04:23:48;;;;;;;5.82;2.03;;;7.60;99.90;;;;;;5100966;28;20221;-85
2023/04/11 04:26:23;;;;;;;6.15;1.80;;;7.60;99.90;;;;;;5095107;28;20393;-85
2023/04/11 04:28:49;;;;;;;8.10;1.73;;;7.60;99.90;;;;;;5108188;28;20396;-85
2023/04/11 04:31:21;;;;;;;5.75;1.52;;;7.60;99.90;;;;;;5092575;28;20131;-85
2023/04/11 04:33:48;;;;;;;8.48;1.70;;;7.60;99.90;;;;;;5109380;28;20047;-85
2023/04/11 04:36:16;;;;;;;10.43;2.05;;;7.60;99.90;;;;;;5108815;28;20498;-85
2023/04/11 04:38:43;;;;;;;7.70;2.20;;;7.60;99.90;;;;;;5108370;28;20043;-86
2023/04/11 04:41:20;;;;;;;6.55;1.85;;;7.60;99.90;;;;;;5084556;28;20040;-87
2023/04/11 04:43:48;;;;;;;5.40;1.80;;;7.60;99.90;;;;;;5102768;28;20463;-85
2023/04/11 04:46:14;;;;;;;7.43;1.98;;;7.60;99.90;;;;;;5109949;28;20051;-85
2023/04/11 04:48:40;;;;;;;6.45;2.67;;;7.60;99.90;;;;;;5110580;28;20137;-85
2023/04/11 04:51:06;;;;;;;7.85;2.03;;;7.60;99.90;;;;;;5107797;28;20048;-84
2023/04/11 04:53:33;;;;;;;7.82;2.72;;;7.60;99.90;;;;;;5109087;28;20136;-85
2023/04/11 04:56:00;;;;;;;5.47;1.90;;;7.60;99.90;;;;;;5081513;28;20047;-85
2023/04/11 04:58:26;;;;;;;6.35;2.08;;;7.60;99.90;;;;;;5103426;28;20390;-85
2023/04/11 05:00:56;;;;;;;6.88;2.10;;;7.60;99.90;;;;;;5107434;28;20035;-85
2023/04/11 05:03:21;;;;;;;5.80;2.00;;;7.60;99.90;;;;;;5089393;28;20032;-85
2023/04/11 05:05:48;;;;;;;6.55;2.47;;;7.50;99.90;;;;;;5107233;28;20031;-85
2023/04/11 05:08:14;;;;;;;7.93;2.20;;;7.50;99.90;;;;;;5106138;28;20682;-86
2023/04/11 05:10:40;;;;;;;9.77;2.13;;;7.60;99.90;;;;;;5109675;28;20115;-85
2023/04/11 05:13:06;;;;;;;6.18;1.92;;;7.50;99.90;;;;;;5109902;28;20052;-86
2023/04/11 05:15:31;;;;;;;10.88;2.28;;;7.50;99.90;;;;;;5091503;28;20058;-85
2023/04/11 05:17:57;;;;;;;6.07;1.90;;;7.50;99.90;;;;;;5109055;28;20044;-86
2023/04/11 05:20:23;;;;;;;6.68;2.10;;;7.60;99.90;;;;;;5108176;28;20046;-86
2023/04/11 05:22:49;;;;;;;6.18;2.30;;;7.60;99.90;;;;;;5109078;28;20052;-85
2023/04/11 05:25:15;;;;;;;5.07;1.75;;;7.60;99.90;;;;;;5108487;28;20837;-86
2023/04/11 05:27:41;;;;;;;4.43;1.90;;;7.60;99.90;;;;;;5109301;28;20048;-86
2023/04/11 05:30:07;;;;;;;5.97;1.90;;;7.60;99.90;;;;;;5108467;28;20478;-84
2023/04/11 05:32:32;;;;;;;5.93;2.08;;;7.60;99.90;;;;;;5104773;28;20044;-84
2023/04/11 05:34:58;;;;;;;7.13;2.30;;;7.50;99.90;;;;;;5109002;28;20084;-84
2023/04/11 05:37:24;;;;;;;3.60;1.92;;;7.50;99.90;;;;;;5107360;28;20063;-86
2023/04/11 05:39:51;;;;;;;7.63;2.05;;;7.60;99.90;;;;;;5107314;28;20048;-84
2023/04/11 05:42:17;;;;;;;6.43;1.60;;;7.50;99.90;;;;;;5099841;28;20053;-85
2023/04/11 05:44:43;;;;;;;7.25;1.88;;;7.50;99.90;;;;;;5094366;28;20050;-83
2023/04/11 05:47:10;;;;;;;6.25;2.20;;;7.50;99.90;;;;;;5102358;28;20397;-83
2023/04/11 05:49:36;;;;;;;6.50;1.52;;;7.50;99.90;;;;;;5107277;28;20153;-83
2023/04/11 05:52:01;;;;;;;4.05;1.67;;;7.50;99.90;;;;;;5105879;28;20043;-84
2023/04/11 05:54:35;;;;;;;7.28;2.00;;;7.60;99.90;;;;;;5109220;28;20045;-85
2023/04/11 05:57:01;;;;;;;6.95;1.80;;;7.50;99.90;;;;;;5105914;28;20104;-83
2023/04/11 05:59:31;;;;;;;5.22;1.65;;;7.60;99.90;;;;;;5105094;27;20046;-84
2023/04/11 06:01:57;;;;;;;6.20;1.80;;;7.50;99.90;;;;;;5098825;28;20054;-84
2023/04/11 06:04:23;;;;;;;5.00;1.70;;;7.50;99.90;;;;;;5105763;28;20039;-84
2023/04/11 06:06:50;;;;;;;4.63;1.92;;;7.60;99.90;;;;;;5107748;28;20039;-84
2023/04/11 06:09:16;;;;;;;5.35;1.60;;;7.60;99.90;;;;;;5108113;28;20073;-84
2023/04/11 06:11:42;;;;;;;7.70;2.00;;;7.60;99.90;;;;;;5108035;28;20043;-85
2023/04/11 06:14:07;;;;;;;6.65;1.70;;;7.70;99.90;;;;;;5108260;28;20172;-83
2023/04/11 06:16:35;;;;;;;6.00;1.98;;;7.60;99.90;;;;;;5107457;28;20100;-83
2023/04/11 06:19:02;;;;;;;7.28;1.83;;;7.70;99.90;;;;;;5108449;28;20051;-84
2023/04/11 06:21:27;;;;;;;6.43;2.00;;;7.70;99.90;;;;;;5084597;28;20416;-84
2023/04/11 06:23:53;;;;;;;5.95;1.88;;;7.70;99.90;;;;;;5093222;28;20047;-83
2023/04/11 06:26:18;;;;;;;4.90;1.60;;;7.80;99.90;;;;;;5107763;28;20199;-84
2023/04/11 06:28:44;;;;;;;5.15;1.95;;;7.70;99.90;;;;;;5106586;28;20043;-86
2023/04/11 06:31:10;;;;;;;6.93;1.60;;;7.70;99.90;;;;;;5106755;28;20115;-84
2023/04/11 06:33:36;;;;;;;5.18;1.67;;;7.80;99.90;;;;;;5106489;28;20095;-85
2023/04/11 06:36:02;;;;;;;8.57;2.47;;;7.80;99.90;;;;;;5105188;28;20058;-84
2023/04/11 06:38:28;;;;;;;5.07;1.90;;;7.80;99.90;;;;;;5099093;28;20048;-84
2023/04/11 06:40:55;;;;;;;4.28;1.70;;;7.90;99.90;;;;;;5086256;28;20048;-84
2023/04/11 06:43:21;;;;;;;4.90;1.67;;;7.90;99.90;;;;;;5086758;28;20052;-85
2023/04/11 06:45:48;;;;;;;4.22;2.45;;;8.00;99.90;;;;;;5087158;28;20047;-84
2023/04/11 06:48:16;;;;;;;5.57;1.70;;;8.00;99.90;;;;;;5069117;28;20051;-84
2023/04/11 06:50:44;;;;;;;8.20;2.30;;;8.00;99.90;;;;;;5088140;28;20070;-84
2023/04/11 06:53:10;;;;;;;4.97;2.17;;;8.10;99.90;;;;;;5099643;28;20062;-83
2023/04/11 06:55:35;;;;;;;5.18;2.00;;;8.10;99.90;;;;;;5107835;28;20047;-85
2023/04/11 06:58:01;;;;;;;7.68;2.03;;;8.00;99.90;;;;;;5108908;28;20036;-85
2023/04/11 07:00:26;;;;;;;8.93;2.30;;;8.00;99.90;;;;;;5107693;28;20470;-85
2023/04/11 07:02:52;;;;;;;8.68;2.05;;;8.00;99.90;;;;;;5108869;28;20138;-84
2023/04/11 07:05:18;;;;;;;5.57;1.85;;;8.00;99.90;;;;;;5102406;28;20035;-86
2023/04/11 07:07:44;;;;;;;6.80;2.55;;;8.10;99.90;;;;;;5077670;28;20043;-84
2023/04/11 07:10:09;;;;;;;11.35;3.35;;;8.10;99.90;;;;;;5107316;28;20059;-83
2023/04/11 07:12:35;;;;;;;12.63;3.15;;;8.20;99.90;;;;;;5107215;28;20401;-84
2023/04/11 07:15:02;;;;;;;7.97;2.42;;;8.30;99.90;;;;;;5107571;28;20127;-84
2023/04/11 07:17:28;;;;;;;10.35;2.30;;;8.30;99.90;;;;;;5108827;28;20513;-85
2023/04/11 07:19:53;;;;;;;5.10;2.08;;;8.40;99.90;;;;;;5106179;28;20126;-84
2023/04/11 07:22:19;;;;;;;6.15;1.95;;;8.40;99.90;;;;;;5087093;28;20484;-85
2023/04/11 07:24:45;;;;;;;10.10;2.00;;;8.40;99.90;;;;;;5086451;28;20510;-84
2023/04/11 07:27:13;;;;;;;6.28;1.90;;;8.40;99.90;;;;;;5087418;28;20047;-85
2023/04/11 07:29:39;;;;;;;5.85;1.98;;;8.50;99.90;;;;;;5069673;28;20048;-85
2023/04/11 07:32:05;;;;;;;15.20;4.72;;;8.60;99.90;;;;;;5090785;28;20036;-85
2023/04/11 07:34:32;;;;;;;8.73;3.78;;;8.60;99.90;;;;;;5092305;28;20070;-84
2023/04/11 07:36:59;;;;;;;10.30;3.28;;;8.70;99.90;;;;;;5069505;28;20047;-84
2023/04/11 07:39:26;;;;;;;7.13;2.55;;;8.70;99.90;;;;;;5085179;28;20418;-84
2023/04/11 07:41:52;;;;;;;7.68;1.80;;;8.70;99.90;;;;;;5086714;28;20048;-84
2023/04/11 07:44:18;;;;;;;6.15;1.83;;;8.80;99.90;;;;;;5086347;28;20050;-85
2023/04/11 07:46:44;;;;;;;6.88;1.67;;;8.80;99.90;;;;;;5086505;28;20040;-85
2023/04/11 07:49:09;;;;;;;8.07;2.10;;;8.90;99.90;;;;;;5099052;28;20108;-85
2023/04/11 07:51:35;;;;;;;7.43;1.77;;;8.90;99.90;;;;;;5105355;28;20050;-85
2023/04/11 07:54:04;;;;;;;4.70;1.83;;;9.00;99.90;;;;;;5110923;28;20055;-85
2023/04/11 07:56:30;;;;;;;8.50;1.77;;;9.00;99.90;;;;;;5094083;28;20514;-85
2023/04/11 07:58:57;;;;;;;5.80;2.00;;;9.00;99.90;;;;;;5110646;28;20079;-84
2023/04/11 08:01:24;;;;;;;7.72;1.80;;;9.10;99.90;;;;;;5110408;28;20051;-86
2023/04/11 08:03:53;;;;;;;7.35;1.90;;;9.10;99.90;;;;;;5090973;28;20039;-85
2023/04/11 08:06:19;;;;;;;9.02;2.28;;;9.10;99.90;;;;;;5102620;28;20047;-86
2023/04/11 08:08:46;;;;;;;4.47;1.55;;;9.00;99.90;;;;;;5089669;28;20036;-86
2023/04/11 08:11:12;;;;;;;9.32;1.60;;;9.10;99.90;;;;;;5089087;28;20513;-84
2023/04/11 08:13:38;;;;;;;5.82;1.60;;;9.00;99.90;;;;;;5088226;28;20040;-85
2023/04/11 08:16:09;;;;;;;7.68;1.88;;;9.10;99.90;;;;;;5089192;28;20056;-85
2023/04/11 08:18:36;;;;;;;6.38;2.20;;;9.10;99.90;;;;;;5088644;28;20137;-84
2023/04/11 08:21:02;;;;;;;4.68;1.75;;;8.60;99.90;;;;;;5090801;28;20302;-86
2023/04/11 08:23:28;;;;;;;7.57;1.70;;;9.30;99.90;;;;;;5104425;28;20108;-83
2023/04/11 08:25:57;;;;;;;6.95;1.95;;;9.80;99.90;;;;;;5108782;28;20104;-84
2023/04/11 08:28:23;;;;;;;9.13;1.67;;;9.30;99.90;;;;;;5110672;28;20048;-85
2023/04/11 08:30:54;;;;;;;6.00;1.80;;;9.30;99.90;;;;;;5111233;28;20054;-84
2023/04/11 08:33:23;;;;;;;5.05;1.65;;;9.20;99.90;;;;;;5110306;28;20050;-85
2023/04/11 08:35:52;;;;;;;6.22;1.77;;;10.00;99.90;;;;;;5109435;28;20056;-84
2023/04/11 08:38:19;;;;;;;5.07;1.40;;;9.30;99.90;;;;;;5109690;28;20155;-84
2023/04/11 08:40:45;;;;;;;4.93;1.42;;;9.40;99.90;;;;;;5110556;28;20039;-86
2023/04/11 08:43:11;;;;;;;7.55;1.88;;;9.60;99.90;;;;;;5109785;28;20829;-86
2023/04/11 08:45:40;;;;;;;8.32;2.08;;;9.90;99.90;;;;;;5092756;28;20039;-85
2023/04/11 08:48:06;;;;;;;5.97;1.75;;;10.00;99.90;;;;;;5109988;28;20054;-84
2023/04/11 08:50:35;;;;;;;7.90;1.30;;;10.20;99.90;;;;;;5099072;28;20505;-84
2023/04/11 08:53:02;;;;;;;2.70;1.25;;;10.20;99.90;;;;;;5101790;28;20040;-86
2023/04/11 08:55:28;;;;;;;4.18;1.30;;;10.10;99.90;;;;;;5109444;28;20063;-84
2023/04/11 08:57:58;;;;;;;5.30;1.30;;;10.20;99.90;;;;;;5109827;28;20058;-85
2023/04/11 09:00:25;;;;;;;3.70;1.30;;;10.10;99.90;;;;;;5108711;28;20051;-85
2023/04/11 09:03:06;;;;;;;7.88;1.42;;;9.90;99.90;;;;;;5109675;28;20062;-85
2023/04/11 09:05:34;;;;;;;7.68;2.33;;;9.90;99.90;;;;;;5107508;28;20051;-86
2023/04/11 09:08:03;;;;;;;4.85;1.50;;;10.30;99.90;;;;;;5092359;28;20055;-86
2023/04/11 09:10:28;;;;;;;7.05;1.85;;;10.10;99.90;;;;;;5108378;28;20044;-84
2023/04/11 09:12:55;;;;;;;4.63;1.60;;;10.30;99.90;;;;;;5109601;28;20090;-85
2023/04/11 09:15:23;;;;;;;6.90;1.27;;;10.70;99.90;;;;;;5109943;28;20044;-85
2023/04/11 09:17:49;;;;;;;5.45;1.30;;;10.60;99.90;;;;;;5108890;28;20516;-85
2023/04/11 09:20:19;;;;;;;5.30;1.40;;;10.70;99.90;;;;;;5109327;28;20057;-86
2023/04/11 09:22:47;;;;;;;7.97;1.45;;;10.70;99.90;;;;;;5108447;28;20036;-86
2023/04/11 09:25:13;;;;;;;2.28;1.25;;;10.60;99.90;;;;;;5098135;28;20502;-86
2023/04/11 09:27:38;;;;;;;5.28;1.10;;;10.40;99.90;;;;;;5088302;28;20040;-85
2023/04/11 09:30:04;;;;;;;3.70;1.10;;;10.20;99.90;;;;;;5089100;28;20052;-84
2023/04/11 09:32:34;;;;;;;6.68;1.40;;;10.10;99.90;;;;;;5072591;28;20058;-83
2023/04/11 09:35:17;;;;;;;3.88;1.60;;;10.10;99.90;;;;;;5088637;28;20090;-85
2023/04/11 09:37:57;;;;;;;3.97;1.23;;;10.20;99.90;;;;;;5071012;28;20105;-85
2023/04/11 09:40:30;;;;;;;5.30;1.45;;;10.60;99.90;;;;;;5089779;28;20036;-84
2023/04/11 09:43:02;;;;;;;6.82;1.40;;;10.90;99.90;;;;;;5109250;28;20054;-85
2023/04/11 09:45:29;;;;;;;5.65;1.15;;;11.10;99.90;;;;;;5109094;28;20055;-84
2023/04/11 09:47:57;;;;;;;2.17;1.30;;;11.10;99.90;;;;;;5090933;28;20799;-82
2023/04/11 09:50:24;;;;;;;3.47;1.42;;;11.30;99.90;;;;;;5108322;28;20047;-86
2023/04/11 09:52:51;;;;;;;7.22;1.38;;;11.60;99.90;;;;;;5090342;28;20044;-84
2023/04/11 09:55:23;;;;;;;4.53;1.48;;;11.60;99.90;;;;;;5090460;28;20052;-84
2023/04/11 09:57:50;;;;;;;5.60;1.42;;;11.70;99.90;;;;;;5091915;28;20052;-83
2023/04/11 10:00:31;;;;;;;4.25;1.30;;;11.90;99.90;;;;;;5106708;28;20051;-83
2023/04/11 10:02:57;;;;;;;4.10;1.55;;;12.00;99.90;;;;;;5095185;28;20096;-84
2023/04/11 10:05:25;;;;;;;3.13;1.08;;;12.00;99.90;;;;;;5100486;28;20048;-85
2023/04/11 10:07:53;;;;;;;5.28;1.55;;;11.80;99.90;;;;;;5070916;28;20167;-84
2023/04/11 10:10:21;;;;;;;6.53;2.00;;;11.70;99.90;;;;;;5070899;28;20095;-83
2023/04/11 10:12:48;;;;;;;8.65;1.40;;;11.80;99.90;;;;;;5105623;28;20036;-84
2023/04/11 10:15:14;;;;;;;4.63;1.42;;;11.90;99.90;;;;;;5087161;28;20048;-84
2023/04/11 10:17:40;;;;;;;5.43;2.35;;;12.00;99.90;;;;;;5086592;28;20399;-84
2023/04/11 10:20:37;;;;;;;10.68;1.83;;;12.20;99.90;;;;;;5087248;28;20454;-83
2023/04/11 10:23:04;;;;;;;4.82;1.23;;;12.60;99.90;;;;;;5090734;28;20039;-85
2023/04/11 10:25:31;;;;;;;7.28;1.90;;;12.80;99.90;;;;;;5107550;28;20494;-84
2023/04/11 10:28:03;;;;;;;5.57;1.60;;;12.60;99.90;;;;;;5108272;28;20044;-85
2023/04/11 10:30:59;;;;;;;4.03;1.30;;;12.30;99.90;;;;;;5091391;28;20051;-84
2023/04/11 10:33:26;;;;;;;7.30;1.55;;;11.90;99.90;;;;;;5098708;28;20055;-85
2023/04/11 10:36:00;;;;;;;6.28;1.67;;;11.50;99.90;;;;;;5107291;28;20059;-85
2023/04/11 10:38:42;;;;;;;6.60;1.20;;;10.80;99.90;;;;;;5106366;28;20502;-86
2023/04/11 10:41:26;;;;;;;5.13;1.33;;;10.30;99.90;;;;;;5108091;28;20100;-85
2023/04/11 10:44:11;;;;;;;7.28;1.60;;;9.90;99.90;;;;;;5109001;28;20094;-85
2023/04/11 10:46:47;;;;;;;6.43;1.60;;;9.70;99.90;;;;;;5106794;28;20059;-85
2023/04/11 10:49:37;;;;;;;3.40;1.30;;;9.70;99.90;;;;;;5106992;28;20047;-84
2023/04/11 10:52:22;;;;;;;5.63;1.40;;;9.50;99.90;;;;;;5107656;28;20553;-85
2023/04/11 10:54:50;;;;;;;5.10;1.50;;;9.50;99.90;;;;;;5089500;28;20119;-84
2023/04/11 10:57:16;;;;;;;8.90;1.80;;;9.60;99.90;;;;;;5106840;28;20062;-85
2023/04/11 10:59:42;;;;;;;8.02;1.98;;;9.80;99.90;;;;;;5094112;28;20116;-86
2023/04/11 11:02:08;;;;;;;5.55;1.45;;;10.00;99.90;;;;;;5090570;28;20483;-85
2023/04/11 11:04:38;;;;;;;6.20;2.03;;;10.20;99.90;;;;;;5106151;28;20050;-85
2023/04/11 11:07:06;;;;;;;7.60;2.00;;;10.30;99.90;;;;;;5106893;28;20427;-85
2023/04/11 11:09:32;;;;;;;4.05;1.30;;;10.40;99.90;;;;;;5105336;28;20074;-85
2023/04/11 11:12:12;;;;;;;8.50;1.60;;;10.50;99.90;;;;;;5107148;28;20073;-85
2023/04/11 11:14:45;;;;;;;8.45;1.73;;;10.50;99.90;;;;;;5088637;28;20055;-85
2023/04/11 11:17:12;;;;;;;5.25;1.23;;;10.60;99.90;;;;;;5107992;28;20058;-84
2023/04/11 11:19:46;;;;;;;3.90;1.30;;;10.60;99.90;;;;;;5106885;28;20483;-85
2023/04/11 11:22:24;;;;;;;3.63;1.08;;;10.70;99.90;;;;;;5108341;28;20494;-85
2023/04/11 11:24:50;;;;;;;11.10;1.60;;;10.70;99.90;;;;;;5090126;28;20053;-86
2023/04/11 11:27:23;;;;;;;4.40;1.30;;;10.70;99.90;;;;;;5107528;28;20157;-85
2023/04/11 11:29:49;;;;;;;6.55;1.40;;;10.90;99.90;;;;;;5106377;28;20798;-85
2023/04/11 11:32:27;;;;;;;6.45;1.40;;;11.10;99.90;;;;;;5106258;28;20520;-85
2023/04/11 11:34:54;;;;;;;7.07;1.40;;;11.20;99.90;;;;;;5106746;28;20516;-86
2023/04/11 11:37:20;;;;;;;7.00;1.60;;;11.00;99.90;;;;;;5126697;27;20055;-85
2023/04/11 11:39:48;;;;;;;9.50;2.13;;;10.90;99.90;;;;;;5110682;28;20057;-86
2023/04/11 11:42:14;;;;;;;8.90;1.65;;;10.90;99.90;;;;;;5109711;28;20051;-85
2023/04/11 11:44:40;;;;;;;4.45;1.45;;;11.20;99.90;;;;;;5105701;28;20088;-84
2023/04/11 11:47:16;;;;;;;7.63;1.55;;;11.60;99.90;;;;;;5083456;28;20442;-85
2023/04/11 11:49:43;;;;;;;4.68;1.13;;;11.90;99.90;;;;;;5127792;27;20062;-85
2023/04/11 11:52:09;;;;;;;5.72;1.33;;;12.10;99.90;;;;;;5128821;28;20051;-86
2023/04/11 11:54:46;;;;;;;2.63;1.00;;;12.00;99.90;;;;;;5109659;27;20050;-86
2023/04/11 11:57:21;;;;;;;3.53;0.93;;;12.20;94.40;;;;;;5128196;27;20522;-86
2023/04/11 11:59:53;;;;;;;7.93;1.30;;;12.10;95.60;;;;;;5117331;27;20389;-86
2023/04/11 12:02:22;;;;;;;;;;;12.10;99.80;;;;;;5105756;28;20051;-84
2023/04/11 12:04:48;;;;;;;5.97;2.33;;;12.30;95.20;;;;;;5109930;28;20506;-84
2023/04/11 12:07:20;;;;;;;3.00;1.20;;;12.40;99.90;;;;;;5091016;28;20122;-84
2023/04/11 12:09:47;;;;;;;5.55;1.80;;;12.50;99.90;;;;;;5120373;27;20176;-82
2023/04/11 12:12:15;;;;;;;4.60;1.35;;;12.40;99.90;;;;;;5125041;28;20088;-83
2023/04/11 12:14:51;;;;;;;4.20;1.13;;;12.40;99.60;;;;;;5114430;28;20036;-84
2023/04/11 12:17:17;;;;;;;6.25;1.73;;;12.20;97.00;;;;;;5106335;28;20040;-83
2023/04/11 12:19:43;;;;;;;6.53;1.25;;;12.20;99.90;;;;;;5113126;28;20057;-85
2023/04/11 12:22:08;;;;;;;3.60;1.30;;;12.20;97.20;;;;;;5128111;28;20047;-84
2023/04/11 12:24:34;;;;;;;5.35;1.20;;;12.10;98.50;;;;;;5110746;28;20039;-84
2023/04/11 12:26:59;;;;;;;3.60;1.08;;;11.90;97.70;;;;;;5128548;28;20132;-83
2023/04/11 12:29:25;;;;;;;1.73;0.95;;;12.00;98.90;;;;;;5110121;28;20074;-83
2023/04/11 12:31:51;;;;;;;3.60;1.20;;;12.10;98.90;;;;;;5093234;28;20130;-84
2023/04/11 12:34:16;;;;;;;4.82;0.93;;;12.20;97.80;;;;;;5109268;28;20069;-83
2023/04/11 12:36:42;;;;;;;3.45;1.35;;;12.20;97.40;;;;;;5111152;28;20109;-84
2023/04/11 12:39:08;;;;;;;3.65;1.10;;;12.10;97.40;;;;;;5089668;28;20126;-84
2023/04/11 12:41:34;;;;;;;5.32;1.17;;;12.20;95.10;;;;;;5117915;27;20039;-83
2023/04/11 12:44:00;;;;;;;3.70;1.17;;;12.10;96.70;;;;;;5131720;27;20051;-84
2023/04/11 12:46:26;;;;;;;5.72;1.65;;;12.30;96.30;;;;;;5114129;27;20047;-83
2023/04/11 12:48:52;;;;;;;4.85;1.20;;;12.40;96.30;;;;;;5096588;27;20155;-83
2023/04/11 12:51:17;;;;;;;3.25;1.00;;;12.70;96.70;;;;;;5131434;27;20550;-83
2023/04/11 12:53:43;;;;;;;4.70;1.30;;;13.10;95.90;;;;;;5111656;27;20046;-84